createdAt,value
2022-10-01T00:02:50.587Z,10.20
2022-10-01T00:07:51.975Z,10.18
2022-10-01T00:12:53.299Z,10.15
2022-10-01T00:17:54.674Z,10.14
2022-10-01T00:22:55.998Z,10.11
2022-10-01T00:27:57.520Z,10.08
2022-10-01T00:32:58.881Z,10.04
2022-10-01T00:38:00.199Z,10.04
2022-10-01T00:43:01.455Z,10.03
2022-10-01T00:48:03.119Z,10.03
2022-10-01T00:53:06.651Z,10.05
2022-10-01T00:58:09.163Z,10.09
2022-10-01T01:03:11.169Z,10.07
2022-10-01T01:08:12.566Z,10.04
2022-10-01T01:13:16.884Z,10.03
2022-10-01T01:18:30.469Z,10.00
2022-10-01T01:23:42.228Z,9.96
2022-10-01T01:28:46.540Z,9.95
2022-10-01T01:33:50.930Z,9.97
2022-10-01T01:38:55.482Z,9.99
2022-10-01T01:44:01.066Z,9.99
2022-10-01T01:49:04.333Z,9.96
2022-10-01T01:54:05.689Z,10.03
2022-10-01T01:59:09.295Z,10.06
2022-10-01T02:04:32.311Z,10.01
2022-10-01T02:09:43.271Z,10.08
2022-10-01T02:14:52.634Z,10.10
2022-10-01T02:19:56.287Z,10.06
2022-10-01T02:24:59.881Z,10.03
2022-10-01T02:30:03.999Z,10.09
2022-10-01T02:35:07.148Z,10.15
2022-10-01T02:40:12.724Z,10.21
2022-10-01T02:45:15.400Z,10.20
2022-10-01T02:50:16.808Z,10.23
2022-10-01T02:55:20.230Z,10.22
2022-10-01T03:00:21.659Z,10.25
2022-10-01T03:05:23.295Z,10.31
2022-10-01T03:10:24.603Z,10.25
2022-10-01T03:15:25.858Z,10.28
2022-10-01T03:20:27.171Z,10.33
2022-10-01T03:25:28.654Z,10.37
2022-10-01T03:30:30.597Z,10.43
2022-10-01T03:35:32.209Z,10.43
2022-10-01T03:40:37.782Z,10.42
2022-10-01T03:45:39.423Z,10.41
2022-10-01T03:50:40.819Z,10.42
2022-10-01T03:55:42.078Z,10.49
2022-10-01T04:00:44.138Z,10.51
2022-10-01T04:05:45.864Z,10.63
2022-10-01T04:10:47.180Z,10.62
2022-10-01T04:15:48.729Z,10.66
2022-10-01T04:20:50.231Z,10.72
2022-10-01T04:25:51.603Z,10.73
2022-10-01T04:31:12.925Z,10.79
2022-10-01T04:36:14.881Z,10.80
2022-10-01T04:41:16.137Z,10.80
2022-10-01T04:46:17.594Z,10.86
2022-10-01T04:51:18.976Z,10.88
2022-10-01T04:56:20.315Z,10.93
2022-10-01T05:01:21.779Z,10.94
2022-10-01T05:06:23.118Z,10.98
2022-10-01T05:11:24.449Z,11.01
2022-10-01T05:16:25.867Z,11.00
2022-10-01T05:21:27.383Z,11.01
2022-10-01T05:26:32.006Z,11.03
2022-10-01T05:31:34.568Z,11.10
2022-10-01T05:36:36.237Z,11.09
2022-10-01T05:41:37.709Z,11.11
2022-10-01T05:46:39.052Z,11.12
2022-10-01T05:51:40.352Z,11.17
2022-10-01T05:56:42.143Z,11.16
2022-10-01T06:01:43.644Z,11.15
2022-10-01T06:06:45.022Z,11.16
2022-10-01T06:11:48.865Z,11.21
2022-10-01T06:16:52.971Z,11.21
2022-10-01T06:21:54.288Z,11.29
2022-10-01T06:26:55.564Z,11.34
2022-10-01T06:31:57.147Z,11.36
2022-10-01T06:36:58.432Z,11.39
2022-10-01T06:41:59.727Z,11.37
2022-10-01T06:47:01.117Z,11.41
2022-10-01T06:52:21.096Z,11.51
2022-10-01T06:57:22.437Z,11.58
2022-10-01T07:02:27.927Z,11.66
2022-10-01T07:07:31.028Z,11.68
2022-10-01T07:12:33.102Z,11.75
2022-10-01T07:17:35.086Z,11.90
2022-10-01T07:22:36.749Z,12.02
2022-10-01T07:27:38.596Z,12.15
2022-10-01T07:32:43.008Z,12.29
2022-10-01T07:37:44.409Z,12.41
2022-10-01T07:42:54.187Z,12.50
2022-10-01T07:47:56.545Z,12.63
2022-10-01T07:52:58.441Z,12.75
2022-10-01T07:58:02.800Z,12.98
2022-10-01T08:09:10.782Z,12.98
2022-10-01T08:14:12.339Z,12.94
2022-10-01T08:19:15.015Z,13.16
2022-10-01T08:24:16.764Z,13.18
2022-10-01T08:29:18.050Z,13.20
2022-10-01T08:34:19.401Z,13.22
2022-10-01T08:39:20.721Z,13.58
2022-10-01T08:44:37.423Z,13.78
2022-10-01T08:49:44.503Z,13.63
2022-10-01T08:54:49.674Z,13.39
2022-10-01T08:59:53.598Z,13.31
2022-10-01T09:05:01.035Z,13.22
2022-10-01T09:10:09.712Z,13.23
2022-10-01T09:15:23.081Z,13.13
2022-10-01T09:20:32.917Z,13.04
2022-10-01T09:25:41.659Z,13.14
2022-10-01T09:30:46.431Z,13.14
2022-10-01T09:36:00.141Z,13.26
2022-10-01T09:41:01.586Z,13.47
2022-10-01T09:46:04.606Z,13.58
2022-10-01T09:51:15.329Z,13.40
2022-10-01T09:56:21.802Z,13.42
2022-10-01T10:01:26.990Z,13.76
2022-10-01T10:06:29.851Z,13.98
2022-10-01T10:11:32.106Z,14.43
2022-10-01T10:16:38.314Z,14.59
2022-10-01T10:21:49.346Z,14.96
2022-10-01T10:26:55.617Z,14.64
2022-10-01T10:31:59.955Z,15.20
2022-10-01T10:37:10.277Z,15.66
2022-10-01T10:42:24.394Z,15.21
2022-10-01T10:47:29.139Z,15.15
2022-10-01T10:52:33.380Z,15.17
2022-10-01T10:57:34.994Z,14.87
2022-10-01T11:02:42.698Z,14.49
2022-10-01T11:07:58.774Z,14.14
2022-10-01T11:13:15.401Z,14.86
2022-10-01T11:18:23.830Z,15.31
2022-10-01T11:23:27.813Z,15.84
2022-10-01T11:28:51.081Z,15.86
2022-10-01T11:34:11.200Z,16.05
2022-10-01T11:39:16.492Z,16.29
2022-10-01T11:44:30.096Z,15.11
2022-10-01T11:49:31.792Z,15.25
2022-10-01T11:54:37.015Z,15.90
2022-10-01T12:00:00.285Z,16.06
2022-10-01T12:05:06.016Z,15.97
2022-10-01T12:10:17.381Z,16.06
2022-10-01T12:15:32.767Z,16.26
2022-10-01T12:20:46.274Z,16.29
2022-10-01T12:25:49.026Z,15.54
2022-10-01T12:31:16.743Z,14.42
2022-10-01T12:36:27.435Z,14.05
2022-10-01T12:41:47.303Z,14.40
2022-10-01T12:46:59.482Z,14.44
2022-10-01T12:52:06.934Z,14.87
2022-10-01T12:57:36.840Z,15.16
2022-10-01T13:02:56.998Z,15.55
2022-10-01T13:08:10.325Z,15.20
2022-10-01T13:13:14.609Z,15.14
2022-10-01T13:18:31.677Z,15.27
2022-10-01T13:23:39.499Z,14.82
2022-10-01T13:29:01.174Z,15.12
2022-10-01T13:34:03.250Z,15.34
2022-10-01T13:39:07.162Z,15.11
2022-10-01T13:44:11.431Z,14.89
2022-10-01T13:49:25.285Z,14.75
2022-10-01T13:54:32.315Z,14.74
2022-10-01T13:59:35.768Z,14.57
2022-10-01T14:04:41.933Z,14.93
2022-10-01T14:09:45.749Z,14.83
2022-10-01T14:15:11.477Z,14.97
2022-10-01T14:20:33.061Z,14.86
2022-10-01T14:25:55.160Z,14.93
2022-10-01T14:31:11.087Z,15.40
2022-10-01T14:36:17.533Z,15.57
2022-10-01T14:41:20.376Z,15.90
2022-10-01T14:46:24.538Z,15.71
2022-10-01T14:51:30.024Z,15.41
2022-10-01T14:56:32.718Z,15.06
2022-10-01T15:01:34.736Z,14.84
2022-10-01T15:06:41.927Z,14.81
2022-10-01T15:11:44.933Z,14.99
2022-10-01T15:16:46.932Z,14.98
2022-10-01T15:21:48.297Z,14.80
2022-10-01T15:26:50.203Z,14.65
2022-10-01T15:31:53.224Z,14.62
2022-10-01T15:36:54.759Z,14.39
2022-10-01T15:41:56.872Z,14.35
2022-10-01T15:47:16.955Z,14.64
2022-10-01T15:52:36.979Z,14.98
2022-10-01T15:57:38.358Z,14.86
2022-10-01T16:02:40.544Z,14.68
2022-10-01T16:07:46.563Z,14.56
2022-10-01T16:12:47.909Z,14.56
2022-10-01T16:17:55.259Z,14.61
2022-10-01T16:23:16.611Z,14.52
2022-10-01T16:28:32.388Z,14.43
2022-10-01T16:33:33.875Z,14.06
2022-10-01T16:38:35.163Z,13.97
2022-10-01T16:43:36.767Z,13.85
2022-10-01T16:48:38.231Z,13.92
2022-10-01T16:53:42.670Z,13.76
2022-10-01T16:58:45.135Z,13.55
2022-10-01T17:03:46.734Z,13.55
2022-10-01T17:08:48.137Z,13.34
2022-10-01T17:13:49.497Z,13.21
2022-10-01T17:18:50.765Z,13.15
2022-10-01T17:23:53.567Z,13.11
2022-10-01T17:28:54.980Z,13.21
2022-10-01T17:33:56.268Z,13.24
2022-10-01T17:38:57.625Z,13.14
2022-10-01T17:43:58.884Z,12.90
2022-10-01T17:49:00.148Z,12.74
2022-10-01T17:54:03.175Z,12.82
2022-10-01T17:59:04.519Z,12.91
2022-10-01T18:04:06.102Z,12.79
2022-10-01T18:09:07.723Z,12.64
2022-10-01T18:14:09.072Z,12.61
2022-10-01T18:24:34.461Z,12.51
2022-10-01T18:29:35.936Z,12.36
2022-10-01T18:34:56.007Z,12.36
2022-10-01T18:40:00.268Z,12.16
2022-10-01T18:45:02.496Z,12.08
2022-10-01T18:50:19.048Z,11.98
2022-10-01T18:55:40.498Z,12.03
2022-10-01T19:00:56.546Z,12.04
2022-10-01T19:06:04.348Z,11.96
2022-10-01T19:11:17.970Z,11.97
2022-10-01T19:16:36.085Z,11.97
2022-10-01T19:21:58.563Z,12.01
2022-10-01T19:27:24.196Z,11.88
2022-10-01T19:32:34.164Z,11.86
2022-10-01T19:37:46.960Z,11.73
2022-10-01T19:42:52.352Z,11.61
2022-10-01T19:47:59.656Z,11.76
2022-10-01T19:53:02.493Z,11.55
2022-10-01T19:58:12.622Z,11.51
2022-10-01T20:03:34.190Z,11.46
2022-10-01T20:08:57.874Z,11.46
2022-10-01T20:14:36.982Z,11.56
2022-10-01T20:19:42.066Z,11.44
2022-10-01T20:25:06.572Z,11.43
2022-10-01T20:30:10.379Z,11.32
2022-10-01T20:35:20.682Z,11.21
2022-10-01T20:40:40.047Z,11.03
2022-10-01T20:45:41.508Z,10.95
2022-10-01T20:50:45.831Z,10.99
2022-10-01T20:55:59.253Z,10.94
2022-10-01T21:01:07.677Z,10.95
2022-10-01T21:06:15.268Z,11.21
2022-10-01T21:11:35.676Z,10.98
2022-10-01T21:16:44.742Z,10.89
2022-10-01T21:22:07.144Z,10.86
2022-10-01T21:27:11.227Z,10.90
2022-10-01T21:32:15.158Z,10.95
2022-10-01T21:37:22.319Z,10.95
2022-10-01T21:42:45.806Z,10.90
2022-10-01T21:47:47.826Z,10.86
2022-10-01T21:53:08.305Z,10.77
2022-10-01T21:58:20.783Z,10.90
2022-10-01T22:03:34.657Z,10.85
2022-10-01T22:08:47.859Z,10.85
2022-10-01T22:13:51.588Z,10.95
2022-10-01T22:18:55.293Z,10.75
2022-10-01T22:24:04.031Z,10.95
2022-10-01T22:29:11.731Z,10.98
2022-10-01T22:34:15.891Z,10.96
2022-10-01T22:39:25.094Z,11.07
2022-10-01T22:44:27.451Z,11.15
2022-10-01T22:49:51.702Z,11.23
2022-10-01T22:55:05.358Z,11.39
2022-10-01T23:00:09.410Z,11.44
2022-10-01T23:05:32.785Z,11.53
2022-10-01T23:10:40.091Z,11.64
2022-10-01T23:16:00.366Z,12.03
2022-10-01T23:21:20.530Z,12.02
2022-10-01T23:26:36.037Z,12.09
2022-10-01T23:31:46.765Z,12.10
2022-10-01T23:36:49.651Z,12.02
2022-10-01T23:41:53.651Z,11.96
2022-10-01T23:46:57.234Z,11.90
2022-10-01T23:52:02.178Z,11.86
2022-10-01T23:57:42.598Z,11.79
